Aérodrome :
LOGIN :

S'inscrire | Disclaimer

   EN    FR    IT 

 










Légende :    VFR   VFR Marginal   IFR   IFR Intensif   IFR Très Intensif
Visi : 
Plafond : 
>= 8 km
>= 3000ft
5 à 8 km
1000 à 3000 ft
1500m à 5 km
500 à 1000 ft
800 à 1500m
200 à 500 ft
< 800m
< 200 ft
Symboles :   Orages  Brouillard  Fortes neiges  Fortes précipitations  Vent > 20 kt
SIGMETs :   Divers  Orages  Givrage  Turbulence  Onde Orograph.  Cendres Volcan.






- Altitude de l'aérodrome : 782 ft
- Code IATA : BGY


LIME - Orio al Serio International - Bergamo

DERNIER METAR :
  • 090820Z 12004KT 070V160 CAVOK 27/19 Q1018 NOSIG

METARs EXPIRÉS :
  • 090750Z 13004KT 090V150 CAVOK 27/18 Q1018 NOSIG
  • 090720Z 12003KT 090V170 CAVOK 26/18 Q1018 NOSIG
  • 090650Z VRB02KT CAVOK 26/18 Q1018 NOSIG
  • 090620Z VRB01KT CAVOK 25/18 Q1018 NOSIG
  • 090550Z VRB01KT CAVOK 24/18 Q1018 NOSIG

TAF TAF LIME
Valide du 09 à 06h jusqu'au 10 à 06h UTC


090500Z 0906/1006 VRB05KT CAVOK



MET'MAP, la Météo Aéronautique d'un coup d'oeil ! - Copyright ORBIFLY Décembre 2007 - Disclaimer

ORBIFLY MET'MAP TEAM :

Programmation & Développement : Alexandra Zaïnal
Sur une idée originale de : Baudouin d'Aumeries
Assistance à la programmation : Marc-Olivier Méhu
Soutien technique & logistique : Manuel Goepfert

Contact : metmap@orbifly.com




SOURCES & CREDITS :

   NOAA